Terminal Aerodrome Forecast
Issued by NWS Milwaukee/Sullivan, WI

Home | Current Version | Previous Version | Text Only | Print | Product List | Glossary On
Versions: 1 2 3 4 5 6 7 8 9 10 11 12 13 14
000
FTUS43 KMKX 191738
TAFMSN
TAF
KMSN 191738Z 1918/2018 24004KT P6SM SCT250
     FM192000 20006KT P6SM SCT250
     FM200100 18005KT P6SM SCT250
     FM201600 20009KT P6SM SKC=

USA.gov is the U.S. government's official web portal to all federal, state and local government web resources and services.